sensor_id;sensor_type;location;lat;lon;timestamp;pressure;altitude;pressure_sealevel;temperature
23992;BMP280;12205;50.600;4.608;2023-01-13T00:00:23;99062.03;;;10.16
23992;BMP280;12205;50.600;4.608;2023-01-13T00:02:51;99021.63;;;10.14
23992;BMP280;12205;50.600;4.608;2023-01-13T00:05:18;99004.81;;;10.09
23992;BMP280;12205;50.600;4.608;2023-01-13T00:07:45;99037.59;;;9.99
23992;BMP280;12205;50.600;4.608;2023-01-13T00:10:16;99109.28;;;9.86
23992;BMP280;12205;50.600;4.608;2023-01-13T00:12:43;99083.72;;;9.78
23992;BMP280;12205;50.600;4.608;2023-01-13T00:15:11;99091.69;;;9.75
23992;BMP280;12205;50.600;4.608;2023-01-13T00:17:38;99105.00;;;9.71
23992;BMP280;12205;50.600;4.608;2023-01-13T00:20:08;99126.75;;;9.73
23992;BMP280;12205;50.600;4.608;2023-01-13T00:22:36;99113.78;;;9.71
23992;BMP280;12205;50.600;4.608;2023-01-13T00:25:04;99119.09;;;9.71
23992;BMP280;12205;50.600;4.608;2023-01-13T00:27:33;99129.78;;;9.71
23992;BMP280;12205;50.600;4.608;2023-01-13T00:30:01;99133.22;;;9.68
23992;BMP280;12205;50.600;4.608;2023-01-13T00:32:28;99154.91;;;9.67
23992;BMP280;12205;50.600;4.608;2023-01-13T00:34:55;99159.50;;;9.66
23992;BMP280;12205;50.600;4.608;2023-01-13T00:37:24;99129.75;;;9.64
23992;BMP280;12205;50.600;4.608;2023-01-13T00:39:51;99123.25;;;9.62
23992;BMP280;12205;50.600;4.608;2023-01-13T00:42:19;99121.00;;;9.60
23992;BMP280;12205;50.600;4.608;2023-01-13T00:45:06;99108.38;;;9.57
23992;BMP280;12205;50.600;4.608;2023-01-13T00:47:34;99097.69;;;9.57
23992;BMP280;12205;50.600;4.608;2023-01-13T00:50:01;99117.91;;;9.54
23992;BMP280;12205;50.600;4.608;2023-01-13T00:52:30;99120.91;;;9.53
23992;BMP280;12205;50.600;4.608;2023-01-13T00:54:57;99123.22;;;9.51
23992;BMP280;12205;50.600;4.608;2023-01-13T00:57:25;99130.00;;;9.45
23992;BMP280;12205;50.600;4.608;2023-01-13T00:59:53;99109.47;;;9.49
23992;BMP280;12205;50.600;4.608;2023-01-13T01:02:21;99118.19;;;9.39
23992;BMP280;12205;50.600;4.608;2023-01-13T01:04:49;99119.69;;;9.36
23992;BMP280;12205;50.600;4.608;2023-01-13T01:07:16;99122.72;;;9.34
23992;BMP280;12205;50.600;4.608;2023-01-13T01:09:43;99125.75;;;9.29
23992;BMP280;12205;50.600;4.608;2023-01-13T01:12:11;99109.75;;;9.29
23992;BMP280;12205;50.600;4.608;2023-01-13T01:14:39;99108.59;;;9.23
23992;BMP280;12205;50.600;4.608;2023-01-13T01:17:06;99094.84;;;9.21
23992;BMP280;12205;50.600;4.608;2023-01-13T01:19:35;99093.66;;;9.15
23992;BMP280;12205;50.600;4.608;2023-01-13T01:22:03;99081.50;;;9.14
23992;BMP280;12205;50.600;4.608;2023-01-13T01:24:31;99072.75;;;9.13
23992;BMP280;12205;50.600;4.608;2023-01-13T01:27:00;99073.88;;;9.16
23992;BMP280;12205;50.600;4.608;2023-01-13T01:29:27;99064.66;;;9.06
23992;BMP280;12205;50.600;4.608;2023-01-13T01:31:56;99055.56;;;9.04
23992;BMP280;12205;50.600;4.608;2023-01-13T01:34:24;99083.66;;;8.97
23992;BMP280;12205;50.600;4.608;2023-01-13T01:36:52;99054.31;;;8.90
23992;BMP280;12205;50.600;4.608;2023-01-13T01:39:20;99055.47;;;8.96
23992;BMP280;12205;50.600;4.608;2023-01-13T01:41:47;99055.44;;;8.89
23992;BMP280;12205;50.600;4.608;2023-01-13T01:44:59;99051.66;;;8.97
23992;BMP280;12205;50.600;4.608;2023-01-13T01:47:29;99046.31;;;8.94
23992;BMP280;12205;50.600;4.608;2023-01-13T01:50:00;99060.38;;;8.91
23992;BMP280;12205;50.600;4.608;2023-01-13T01:52:35;99054.69;;;8.92
23992;BMP280;12205;50.600;4.608;2023-01-13T01:55:08;99050.09;;;8.89
23992;BMP280;12205;50.600;4.608;2023-01-13T01:57:42;99056.19;;;8.90
23992;BMP280;12205;50.600;4.608;2023-01-13T02:00:12;99053.13;;;8.84
23992;BMP280;12205;50.600;4.608;2023-01-13T02:02:44;99047.81;;;8.88
23992;BMP280;12205;50.600;4.608;2023-01-13T02:05:12;99031.06;;;8.87
23992;BMP280;12205;50.600;4.608;2023-01-13T02:07:43;99044.03;;;8.92
23992;BMP280;12205;50.600;4.608;2023-01-13T02:10:14;99038.69;;;8.92
23992;BMP280;12205;50.600;4.608;2023-01-13T02:12:43;99047.06;;;8.87
23992;BMP280;12205;50.600;4.608;2023-01-13T02:15:13;99054.28;;;8.83
23992;BMP280;12205;50.600;4.608;2023-01-13T02:18:14;99035.91;;;8.74
23992;BMP280;12205;50.600;4.608;2023-01-13T02:21:12;99043.16;;;8.74
23992;BMP280;12205;50.600;4.608;2023-01-13T02:27:51;99049.22;;;8.71
23992;BMP280;12205;50.600;4.608;2023-01-13T02:30:41;99061.38;;;8.68
23992;BMP280;12205;50.600;4.608;2023-01-13T02:33:41;99051.44;;;8.61
23992;BMP280;12205;50.600;4.608;2023-01-13T02:36:28;99053.69;;;8.59
23992;BMP280;12205;50.600;4.608;2023-01-13T02:39:02;99044.56;;;8.60
23992;BMP280;12205;50.600;4.608;2023-01-13T02:41:38;99045.28;;;8.57
23992;BMP280;12205;50.600;4.608;2023-01-13T02:44:29;99044.91;;;8.55
23992;BMP280;12205;50.600;4.608;2023-01-13T02:47:07;99049.88;;;8.57
23992;BMP280;12205;50.600;4.608;2023-01-13T02:49:42;99025.50;;;8.51
23992;BMP280;12205;50.600;4.608;2023-01-13T02:52:14;99024.66;;;8.43
23992;BMP280;12205;50.600;4.608;2023-01-13T02:54:50;99032.59;;;8.40
23992;BMP280;12205;50.600;4.608;2023-01-13T02:57:21;99034.13;;;8.41
23992;BMP280;12205;50.600;4.608;2023-01-13T02:59:51;99042.13;;;8.41
23992;BMP280;12205;50.600;4.608;2023-01-13T03:02:22;99047.44;;;8.41
23992;BMP280;12205;50.600;4.608;2023-01-13T03:04:54;99047.44;;;8.41
23992;BMP280;12205;50.600;4.608;2023-01-13T03:07:49;99047.88;;;8.43
23992;BMP280;12205;50.600;4.608;2023-01-13T03:13:56;99027.78;;;8.53
23992;BMP280;12205;50.600;4.608;2023-01-13T03:16:32;99025.53;;;8.58
23992;BMP280;12205;50.600;4.608;2023-01-13T03:19:20;99040.69;;;8.54
23992;BMP280;12205;50.600;4.608;2023-01-13T03:21:56;99033.16;;;8.60
23992;BMP280;12205;50.600;4.608;2023-01-13T03:24:33;99045.34;;;8.61
23992;BMP280;12205;50.600;4.608;2023-01-13T03:27:06;99023.28;;;8.68
23992;BMP280;12205;50.600;4.608;2023-01-13T03:29:40;99023.28;;;8.68
23992;BMP280;12205;50.600;4.608;2023-01-13T03:32:17;99024.09;;;8.72
23992;BMP280;12205;50.600;4.608;2023-01-13T03:34:51;99018.44;;;8.73
23992;BMP280;12205;50.600;4.608;2023-01-13T03:37:26;99015.38;;;8.78
23992;BMP280;12205;50.600;4.608;2023-01-13T03:40:01;99010.44;;;8.77
23992;BMP280;12205;50.600;4.608;2023-01-13T03:42:33;99009.69;;;8.80
23992;BMP280;12205;50.600;4.608;2023-01-13T03:45:08;99014.63;;;8.78
23992;BMP280;12205;50.600;4.608;2023-01-13T03:47:42;99013.53;;;8.83
23992;BMP280;12205;50.600;4.608;2023-01-13T03:50:19;99028.75;;;8.86
23992;BMP280;12205;50.600;4.608;2023-01-13T03:52:53;99016.19;;;8.86
23992;BMP280;12205;50.600;4.608;2023-01-13T03:55:29;99015.88;;;8.91
23992;BMP280;12205;50.600;4.608;2023-01-13T03:58:03;99029.19;;;8.95
23992;BMP280;12205;50.600;4.608;2023-01-13T04:00:41;99019.63;;;8.87
23992;BMP280;12205;50.600;4.608;2023-01-13T04:03:14;99044.09;;;8.99
23992;BMP280;12205;50.600;4.608;2023-01-13T04:05:56;99064.66;;;9.06
23992;BMP280;12205;50.600;4.608;2023-01-13T04:08:27;99056.69;;;9.03
23992;BMP280;12205;50.600;4.608;2023-01-13T04:11:02;99049.44;;;9.03
23992;BMP280;12205;50.600;4.608;2023-01-13T04:13:36;99044.88;;;9.04
23992;BMP280;12205;50.600;4.608;2023-01-13T04:16:07;99042.59;;;9.06
23992;BMP280;12205;50.600;4.608;2023-01-13T04:18:37;99030.38;;;9.05
23992;BMP280;12205;50.600;4.608;2023-01-13T04:21:07;99024.34;;;9.08
23992;BMP280;12205;50.600;4.608;2023-01-13T04:23:35;99026.59;;;9.06
23992;BMP280;12205;50.600;4.608;2023-01-13T04:26:02;99038.38;;;9.05
23992;BMP280;12205;50.600;4.608;2023-01-13T04:28:29;99033.47;;;9.07
23992;BMP280;12205;50.600;4.608;2023-01-13T04:30:58;99039.56;;;9.04
23992;BMP280;12205;50.600;4.608;2023-01-13T04:33:25;99038.00;;;9.06
23992;BMP280;12205;50.600;4.608;2023-01-13T04:35:53;99019.00;;;9.04
23992;BMP280;12205;50.600;4.608;2023-01-13T04:38:21;99010.59;;;9.02
23992;BMP280;12205;50.600;4.608;2023-01-13T04:40:49;99026.56;;;8.98
23992;BMP280;12205;50.600;4.608;2023-01-13T04:43:16;99050.91;;;8.93
23992;BMP280;12205;50.600;4.608;2023-01-13T04:45:43;99041.78;;;8.94
23992;BMP280;12205;50.600;4.608;2023-01-13T04:48:11;98991.44;;;8.82
23992;BMP280;12205;50.600;4.608;2023-01-13T04:50:38;98979.16;;;8.63
23992;BMP280;12205;50.600;4.608;2023-01-13T04:53:06;98983.56;;;8.41
23992;BMP280;12205;50.600;4.608;2023-01-13T04:55:34;98910.38;;;8.20
23992;BMP280;12205;50.600;4.608;2023-01-13T04:58:03;98882.97;;;8.13
23992;BMP280;12205;50.600;4.608;2023-01-13T05:00:31;98872.69;;;8.15
23992;BMP280;12205;50.600;4.608;2023-01-13T05:02:59;98861.59;;;8.05
23992;BMP280;12205;50.600;4.608;2023-01-13T05:05:27;98819.75;;;7.99
23992;BMP280;12205;50.600;4.608;2023-01-13T05:07:54;98789.94;;;7.75
23992;BMP280;12205;50.600;4.608;2023-01-13T05:10:22;98737.53;;;7.79
23992;BMP280;12205;50.600;4.608;2023-01-13T05:12:50;98708.25;;;7.72
23992;BMP280;12205;50.600;4.608;2023-01-13T05:15:36;98679.75;;;7.72
23992;BMP280;12205;50.600;4.608;2023-01-13T05:18:22;98679.75;;;7.72
23992;BMP280;12205;50.600;4.608;2023-01-13T05:20:50;98724.63;;;7.74
23992;BMP280;12205;50.600;4.608;2023-01-13T05:23:17;98728.44;;;7.80
23992;BMP280;12205;50.600;4.608;2023-01-13T05:26:02;98749.00;;;7.87
23992;BMP280;12205;50.600;4.608;2023-01-13T05:28:33;98776.34;;;7.84
23992;BMP280;12205;50.600;4.608;2023-01-13T05:31:01;98810.56;;;7.85
23992;BMP280;12205;50.600;4.608;2023-01-13T05:33:28;98805.19;;;7.82
23992;BMP280;12205;50.600;4.608;2023-01-13T05:36:00;98734.47;;;7.70
23992;BMP280;12205;50.600;4.608;2023-01-13T05:38:28;98685.06;;;7.69
23992;BMP280;12205;50.600;4.608;2023-01-13T05:40:58;98690.75;;;7.64
23992;BMP280;12205;50.600;4.608;2023-01-13T05:43:44;98686.91;;;7.58
23992;BMP280;12205;50.600;4.608;2023-01-13T05:46:12;98689.16;;;7.56
23992;BMP280;12205;50.600;4.608;2023-01-13T05:48:41;98687.28;;;7.60
23992;BMP280;12205;50.600;4.608;2023-01-13T05:51:11;98675.88;;;7.52
23992;BMP280;12205;50.600;4.608;2023-01-13T05:53:38;98672.84;;;7.53
23992;BMP280;12205;50.600;4.608;2023-01-13T05:56:08;98662.97;;;7.54
23992;BMP280;12205;50.600;4.608;2023-01-13T05:58:36;98662.22;;;7.61
23992;BMP280;12205;50.600;4.608;2023-01-13T06:01:07;98667.56;;;7.61
23992;BMP280;12205;50.600;4.608;2023-01-13T06:03:35;98654.63;;;7.63
23992;BMP280;12205;50.600;4.608;2023-01-13T06:06:03;98670.59;;;7.63
23992;BMP280;12205;50.600;4.608;2023-01-13T06:08:33;98666.81;;;7.64
23992;BMP280;12205;50.600;4.608;2023-01-13T06:11:00;98672.88;;;7.68
23992;BMP280;12205;50.600;4.608;2023-01-13T06:13:28;98684.31;;;7.72
23992;BMP280;12205;50.600;4.608;2023-01-13T06:15:56;98699.47;;;7.68
23992;BMP280;12205;50.600;4.608;2023-01-13T06:18:26;98703.25;;;7.67
23992;BMP280;12205;50.600;4.608;2023-01-13T06:20:54;98729.47;;;7.68
23992;BMP280;12205;50.600;4.608;2023-01-13T06:23:21;98739.00;;;7.69
23992;BMP280;12205;50.600;4.608;2023-01-13T06:25:57;98765.59;;;7.66
23992;BMP280;12205;50.600;4.608;2023-01-13T06:28:26;98807.75;;;7.67
23992;BMP280;12205;50.600;4.608;2023-01-13T06:31:00;98816.09;;;7.69
23992;BMP280;12205;50.600;4.608;2023-01-13T06:33:34;98835.44;;;7.66
23992;BMP280;12205;50.600;4.608;2023-01-13T06:36:08;98849.16;;;7.65
23992;BMP280;12205;50.600;4.608;2023-01-13T06:38:41;98856.00;;;7.66
23992;BMP280;12205;50.600;4.608;2023-01-13T06:41:10;98872.69;;;7.66
23992;BMP280;12205;50.600;4.608;2023-01-13T06:43:38;98874.94;;;7.64
23992;BMP280;12205;50.600;4.608;2023-01-13T06:46:05;98890.56;;;7.66
23992;BMP280;12205;50.600;4.608;2023-01-13T06:48:34;98901.22;;;7.66
23992;BMP280;12205;50.600;4.608;2023-01-13T06:51:01;98898.53;;;7.66
23992;BMP280;12205;50.600;4.608;2023-01-13T06:53:29;98900.03;;;7.63
23992;BMP280;12205;50.600;4.608;2023-01-13T06:55:56;98902.63;;;7.60
23992;BMP280;12205;50.600;4.608;2023-01-13T06:58:23;98916.75;;;7.64
23992;BMP280;12205;50.600;4.608;2023-01-13T07:00:51;98919.75;;;7.62
23992;BMP280;12205;50.600;4.608;2023-01-13T07:03:20;98933.78;;;7.59
23992;BMP280;12205;50.600;4.608;2023-01-13T07:05:55;98910.59;;;7.60
23992;BMP280;12205;50.600;4.608;2023-01-13T07:08:23;98954.00;;;7.67
23992;BMP280;12205;50.600;4.608;2023-01-13T07:10:50;98949.44;;;7.68
23992;BMP280;12205;50.600;4.608;2023-01-13T07:13:19;98957.03;;;7.66
23992;BMP280;12205;50.600;4.608;2023-01-13T07:16:07;98968.03;;;7.68
23992;BMP280;12205;50.600;4.608;2023-01-13T07:18:35;98997.72;;;7.70
23992;BMP280;12205;50.600;4.608;2023-01-13T07:21:06;98973.78;;;7.70
23992;BMP280;12205;50.600;4.608;2023-01-13T07:23:36;98993.53;;;7.72
23992;BMP280;12205;50.600;4.608;2023-01-13T07:26:05;99021.69;;;7.74
23992;BMP280;12205;50.600;4.608;2023-01-13T07:28:33;99001.59;;;7.76
23992;BMP280;12205;50.600;4.608;2023-01-13T07:31:01;99009.63;;;7.83
23992;BMP280;12205;50.600;4.608;2023-01-13T07:33:28;99024.13;;;7.89
23992;BMP280;12205;50.600;4.608;2023-01-13T07:36:00;99018.03;;;7.85
23992;BMP280;12205;50.600;4.608;2023-01-13T07:38:31;99041.59;;;7.87
23992;BMP280;12205;50.600;4.608;2023-01-13T07:40:59;99054.56;;;7.92
23992;BMP280;12205;50.600;4.608;2023-01-13T07:43:48;99078.88;;;7.90
23992;BMP280;12205;50.600;4.608;2023-01-13T07:46:14;99070.53;;;7.92
23992;BMP280;12205;50.600;4.608;2023-01-13T07:48:42;99068.59;;;7.89
23992;BMP280;12205;50.600;4.608;2023-01-13T07:51:11;99071.28;;;7.93
23992;BMP280;12205;50.600;4.608;2023-01-13T07:53:39;99077.00;;;7.95
23992;BMP280;12205;50.600;4.608;2023-01-13T07:56:07;99069.03;;;7.95
23992;BMP280;12205;50.600;4.608;2023-01-13T07:58:36;99082.75;;;7.97
23992;BMP280;12205;50.600;4.608;2023-01-13T08:01:07;99097.16;;;7.96
23992;BMP280;12205;50.600;4.608;2023-01-13T08:03:34;99113.13;;;7.96
23992;BMP280;12205;50.600;4.608;2023-01-13T08:06:02;99132.56;;;8.00
23992;BMP280;12205;50.600;4.608;2023-01-13T08:08:29;99131.03;;;7.99
23992;BMP280;12205;50.600;4.608;2023-01-13T08:11:00;99126.09;;;8.01
23992;BMP280;12205;50.600;4.608;2023-01-13T08:13:27;99138.28;;;8.02
23992;BMP280;12205;50.600;4.608;2023-01-13T08:16:00;99148.22;;;8.05
23992;BMP280;12205;50.600;4.608;2023-01-13T08:18:27;99153.94;;;8.07
23992;BMP280;12205;50.600;4.608;2023-01-13T08:20:55;99146.78;;;8.11
23992;BMP280;12205;50.600;4.608;2023-01-13T08:23:26;99149.09;;;8.16
23992;BMP280;12205;50.600;4.608;2023-01-13T08:25:53;99154.13;;;8.21
23992;BMP280;12205;50.600;4.608;2023-01-13T08:28:22;99138.50;;;8.20
23992;BMP280;12205;50.600;4.608;2023-01-13T08:30:49;99157.16;;;8.23
23992;BMP280;12205;50.600;4.608;2023-01-13T08:33:19;99202.41;;;8.23
23992;BMP280;12205;50.600;4.608;2023-01-13T08:35:46;99168.94;;;8.22
23992;BMP280;12205;50.600;4.608;2023-01-13T08:38:17;99165.94;;;8.24
23992;BMP280;12205;50.600;4.608;2023-01-13T08:40:45;99184.53;;;8.20
23992;BMP280;12205;50.600;4.608;2023-01-13T08:43:12;99237.34;;;8.18
23992;BMP280;12205;50.600;4.608;2023-01-13T08:45:41;99228.22;;;8.19
23992;BMP280;12205;50.600;4.608;2023-01-13T08:48:08;99221.81;;;8.24
23992;BMP280;12205;50.600;4.608;2023-01-13T08:50:36;99214.59;;;8.24
23992;BMP280;12205;50.600;4.608;2023-01-13T08:53:03;99219.19;;;8.27
23992;BMP280;12205;50.600;4.608;2023-01-13T08:55:30;99217.25;;;8.24
23992;BMP280;12205;50.600;4.608;2023-01-13T08:57:57;99222.28;;;8.30
23992;BMP280;12205;50.600;4.608;2023-01-13T09:00:25;99239.81;;;8.31
23992;BMP280;12205;50.600;4.608;2023-01-13T09:02:53;99242.09;;;8.32
23992;BMP280;12205;50.600;4.608;2023-01-13T09:05:21;99253.13;;;8.34
23992;BMP280;12205;50.600;4.608;2023-01-13T09:07:48;99276.31;;;8.34
23992;BMP280;12205;50.600;4.608;2023-01-13T09:10:16;99281.69;;;8.37
23992;BMP280;12205;50.600;4.608;2023-01-13T09:12:43;99287.78;;;8.38
23992;BMP280;12205;50.600;4.608;2023-01-13T09:15:28;99301.50;;;8.40
23992;BMP280;12205;50.600;4.608;2023-01-13T09:17:57;99292.00;;;8.39
23992;BMP280;12205;50.600;4.608;2023-01-13T09:20:25;99292.69;;;8.36
23992;BMP280;12205;50.600;4.608;2023-01-13T09:22:52;99298.38;;;8.31
23992;BMP280;12205;50.600;4.608;2023-01-13T09:25:20;99280.75;;;8.22
23992;BMP280;12205;50.600;4.608;2023-01-13T09:27:47;99305.94;;;8.29
23992;BMP280;12205;50.600;4.608;2023-01-13T09:30:14;99295.28;;;8.29
23992;BMP280;12205;50.600;4.608;2023-01-13T09:32:42;99285.81;;;8.31
23992;BMP280;12205;50.600;4.608;2023-01-13T09:35:10;99293.81;;;8.31
23992;BMP280;12205;50.600;4.608;2023-01-13T09:37:39;99305.25;;;8.35
23992;BMP280;12205;50.600;4.608;2023-01-13T09:40:14;99317.44;;;8.36
23992;BMP280;12205;50.600;4.608;2023-01-13T09:42:49;99296.50;;;8.35
23992;BMP280;12205;50.600;4.608;2023-01-13T09:45:43;99296.97;;;8.40
23992;BMP280;12205;50.600;4.608;2023-01-13T09:48:18;99302.31;;;8.44
23992;BMP280;12205;50.600;4.608;2023-01-13T09:51:00;99341.13;;;8.45
23992;BMP280;12205;50.600;4.608;2023-01-13T09:53:35;99332.13;;;8.53
23992;BMP280;12205;50.600;4.608;2023-01-13T09:56:04;99345.94;;;8.62
23992;BMP280;12205;50.600;4.608;2023-01-13T09:58:32;99354.31;;;8.65
23992;BMP280;12205;50.600;4.608;2023-01-13T10:01:17;99359.69;;;8.68
23992;BMP280;12205;50.600;4.608;2023-01-13T10:03:46;99351.34;;;8.70
23992;BMP280;12205;50.600;4.608;2023-01-13T10:06:32;99346.09;;;8.73
23992;BMP280;12205;50.600;4.608;2023-01-13T10:09:01;99358.63;;;8.73
23992;BMP280;12205;50.600;4.608;2023-01-13T10:11:35;99354.44;;;8.75
23992;BMP280;12205;50.600;4.608;2023-01-13T10:14:32;99356.47;;;8.82
23992;BMP280;12205;50.600;4.608;2023-01-13T10:17:09;99360.47;;;8.69
23992;BMP280;12205;50.600;4.608;2023-01-13T10:19:43;99329.97;;;8.66
23992;BMP280;12205;50.600;4.608;2023-01-13T10:22:31;99324.00;;;8.73
23992;BMP280;12205;50.600;4.608;2023-01-13T10:25:32;99335.03;;;8.75
23992;BMP280;12205;50.600;4.608;2023-01-13T10:28:11;99334.94;;;8.68
23992;BMP280;12205;50.600;4.608;2023-01-13T10:30:42;99338.53;;;8.79
23992;BMP280;12205;50.600;4.608;2023-01-13T10:33:12;99328.75;;;8.90
23992;BMP280;12205;50.600;4.608;2023-01-13T10:35:56;99386.75;;;9.01
23992;BMP280;12205;50.600;4.608;2023-01-13T10:38:29;99347.97;;;9.07
23992;BMP280;12205;50.600;4.608;2023-01-13T10:41:04;99339.00;;;9.22
23992;BMP280;12205;50.600;4.608;2023-01-13T10:43:32;99342.47;;;9.26
23992;BMP280;12205;50.600;4.608;2023-01-13T10:46:03;99348.84;;;9.18
23992;BMP280;12205;50.600;4.608;2023-01-13T10:48:39;99328.66;;;9.17
23992;BMP280;12205;50.600;4.608;2023-01-13T10:51:18;99357.19;;;9.13
23992;BMP280;12205;50.600;4.608;2023-01-13T10:53:53;99364.81;;;9.14
23992;BMP280;12205;50.600;4.608;2023-01-13T10:56:24;99333.59;;;9.15
23992;BMP280;12205;50.600;4.608;2023-01-13T10:59:14;99345.75;;;9.12
23992;BMP280;12205;50.600;4.608;2023-01-13T11:01:55;99364.84;;;9.18
23992;BMP280;12205;50.600;4.608;2023-01-13T11:04:31;99351.22;;;9.23
23992;BMP280;12205;50.600;4.608;2023-01-13T11:06:59;99374.50;;;9.30
23992;BMP280;12205;50.600;4.608;2023-01-13T11:09:31;99362.72;;;9.34
23992;BMP280;12205;50.600;4.608;2023-01-13T11:11:59;99394.31;;;9.32
23992;BMP280;12205;50.600;4.608;2023-01-13T11:14:35;99381.72;;;9.29
23992;BMP280;12205;50.600;4.608;2023-01-13T11:17:31;99388.66;;;9.38
23992;BMP280;12205;50.600;4.608;2023-01-13T11:20:13;99419.22;;;9.44
23992;BMP280;12205;50.600;4.608;2023-01-13T11:22:45;99411.94;;;9.41
23992;BMP280;12205;50.600;4.608;2023-01-13T11:25:20;99371.13;;;9.36
23992;BMP280;12205;50.600;4.608;2023-01-13T11:27:56;99363.13;;;9.33
23992;BMP280;12205;50.600;4.608;2023-01-13T11:30:32;99360.75;;;9.28
23992;BMP280;12205;50.600;4.608;2023-01-13T11:33:27;99329.34;;;9.48
23992;BMP280;12205;50.600;4.608;2023-01-13T11:36:07;99363.28;;;9.51
23992;BMP280;12205;50.600;4.608;2023-01-13T11:38:45;99378.22;;;9.59
23992;BMP280;12205;50.600;4.608;2023-01-13T11:41:34;99397.31;;;9.65
23992;BMP280;12205;50.600;4.608;2023-01-13T11:44:16;99434.97;;;9.56
23992;BMP280;12205;50.600;4.608;2023-01-13T11:46:48;99398.78;;;9.59
23992;BMP280;12205;50.600;4.608;2023-01-13T11:49:23;99420.91;;;9.59
23992;BMP280;12205;50.600;4.608;2023-01-13T11:51:59;99411.78;;;9.64
23992;BMP280;12205;50.600;4.608;2023-01-13T11:55:03;99376.69;;;9.58
23992;BMP280;12205;50.600;4.608;2023-01-13T11:58:21;99346.97;;;9.63
23992;BMP280;12205;50.600;4.608;2023-01-13T12:01:28;99347.75;;;9.64
23992;BMP280;12205;50.600;4.608;2023-01-13T12:04:25;99369.09;;;9.60
23992;BMP280;12205;50.600;4.608;2023-01-13T12:07:08;99372.88;;;9.59
23992;BMP280;12205;50.600;4.608;2023-01-13T12:09:57;99394.16;;;9.52
23992;BMP280;12205;50.600;4.608;2023-01-13T12:12:46;99394.16;;;9.52
23992;BMP280;12205;50.600;4.608;2023-01-13T12:15:55;99424.63;;;9.51
23992;BMP280;12205;50.600;4.608;2023-01-13T12:18:54;99424.63;;;9.51
23992;BMP280;12205;50.600;4.608;2023-01-13T12:21:28;99426.88;;;9.49
23992;BMP280;12205;50.600;4.608;2023-01-13T12:24:06;99386.06;;;9.45
23992;BMP280;12205;50.600;4.608;2023-01-13T12:26:42;99379.53;;;9.39
23992;BMP280;12205;50.600;4.608;2023-01-13T12:29:15;99363.47;;;9.35
23992;BMP280;12205;50.600;4.608;2023-01-13T12:31:47;99319.16;;;9.20
23992;BMP280;12205;50.600;4.608;2023-01-13T12:34:34;99278.66;;;9.07
23992;BMP280;12205;50.600;4.608;2023-01-13T12:37:13;99272.56;;;9.03
23992;BMP280;12205;50.600;4.608;2023-01-13T12:39:58;99251.97;;;8.99
23992;BMP280;12205;50.600;4.608;2023-01-13T12:42:38;99300.75;;;9.07
23992;BMP280;12205;50.600;4.608;2023-01-13T12:45:28;99319.78;;;9.06
23992;BMP280;12205;50.600;4.608;2023-01-13T12:47:59;99327.03;;;9.09
23992;BMP280;12205;50.600;4.608;2023-01-13T12:50:38;99334.28;;;9.08
23992;BMP280;12205;50.600;4.608;2023-01-13T12:53:30;99315.69;;;9.12
23992;BMP280;12205;50.600;4.608;2023-01-13T12:56:35;99336.66;;;9.17
23992;BMP280;12205;50.600;4.608;2023-01-13T12:59:40;99371.00;;;9.22
23992;BMP280;12205;50.600;4.608;2023-01-13T13:02:33;99432.00;;;9.27
23992;BMP280;12205;50.600;4.608;2023-01-13T13:05:37;99419.84;;;9.30
23992;BMP280;12205;50.600;4.608;2023-01-13T13:08:17;99472.81;;;9.31
23992;BMP280;12205;50.600;4.608;2023-01-13T13:11:18;99451.53;;;9.39
23992;BMP280;12205;50.600;4.608;2023-01-13T13:14:02;99479.03;;;9.43
23992;BMP280;12205;50.600;4.608;2023-01-13T13:16:48;99508.41;;;9.46
23992;BMP280;12205;50.600;4.608;2023-01-13T13:19:45;99516.13;;;9.55
23992;BMP280;12205;50.600;4.608;2023-01-13T13:22:36;99512.03;;;9.65
23992;BMP280;12205;50.600;4.608;2023-01-13T13:25:22;99565.72;;;9.60
23992;BMP280;12205;50.600;4.608;2023-01-13T13:28:18;99594.81;;;9.68
23992;BMP280;12205;50.600;4.608;2023-01-13T13:34:12;99628.78;;;9.75
23992;BMP280;12205;50.600;4.608;2023-01-13T13:37:12;99621.66;;;9.83
23992;BMP280;12205;50.600;4.608;2023-01-13T13:39:44;99639.28;;;9.91
23992;BMP280;12205;50.600;4.608;2023-01-13T13:42:37;99635.50;;;9.92
23992;BMP280;12205;50.600;4.608;2023-01-13T13:45:25;99661.47;;;9.95
23992;BMP280;12205;50.600;4.608;2023-01-13T13:48:22;99649.69;;;9.96
23992;BMP280;12205;50.600;4.608;2023-01-13T13:50:52;99658.56;;;10.07
23992;BMP280;12205;50.600;4.608;2023-01-13T13:53:27;99689.09;;;10.10
23992;BMP280;12205;50.600;4.608;2023-01-13T13:56:03;99668.75;;;10.32
23992;BMP280;12205;50.600;4.608;2023-01-13T13:58:33;99691.75;;;10.44
23992;BMP280;12205;50.600;4.608;2023-01-13T14:01:04;99699.34;;;10.38
23992;BMP280;12205;50.600;4.608;2023-01-13T14:03:34;99714.69;;;10.45
23992;BMP280;12205;50.600;4.608;2023-01-13T14:06:04;99708.97;;;10.46
23992;BMP280;12205;50.600;4.608;2023-01-13T14:08:36;99725.34;;;10.41
23992;BMP280;12205;50.600;4.608;2023-01-13T14:11:25;99773.31;;;10.34
23992;BMP280;12205;50.600;4.608;2023-01-13T14:14:02;99750.31;;;10.26
23992;BMP280;12205;50.600;4.608;2023-01-13T14:16:31;99739.63;;;10.26
23992;BMP280;12205;50.600;4.608;2023-01-13T14:18:59;99746.03;;;10.18
23992;BMP280;12205;50.600;4.608;2023-01-13T14:21:28;99752.19;;;10.22
23992;BMP280;12205;50.600;4.608;2023-01-13T14:23:58;99722.13;;;10.28
23992;BMP280;12205;50.600;4.608;2023-01-13T14:26:29;99759.59;;;10.32
23992;BMP280;12205;50.600;4.608;2023-01-13T14:28:59;99742.75;;;10.28
23992;BMP280;12205;50.600;4.608;2023-01-13T14:31:27;99754.03;;;10.18
23992;BMP280;12205;50.600;4.608;2023-01-13T14:33:58;99745.22;;;10.14
23992;BMP280;12205;50.600;4.608;2023-01-13T14:36:35;99741.72;;;10.09
23992;BMP280;12205;50.600;4.608;2023-01-13T14:39:24;99730.72;;;10.11
23992;BMP280;12205;50.600;4.608;2023-01-13T14:41:52;99725.00;;;10.13
23992;BMP280;12205;50.600;4.608;2023-01-13T14:44:25;99748.97;;;10.09
23992;BMP280;12205;50.600;4.608;2023-01-13T14:46:54;99755.91;;;10.14
23992;BMP280;12205;50.600;4.608;2023-01-13T14:49:28;99752.41;;;10.09
23992;BMP280;12205;50.600;4.608;2023-01-13T14:52:06;99769.16;;;10.06
23992;BMP280;12205;50.600;4.608;2023-01-13T14:54:46;99772.56;;;10.03
23992;BMP280;12205;50.600;4.608;2023-01-13T14:57:24;99763.44;;;10.04
23992;BMP280;12205;50.600;4.608;2023-01-13T15:00:01;99791.84;;;9.93
23992;BMP280;12205;50.600;4.608;2023-01-13T15:02:44;99791.16;;;9.96
23992;BMP280;12205;50.600;4.608;2023-01-13T15:05:49;99802.53;;;9.93
23992;BMP280;12205;50.600;4.608;2023-01-13T15:08:36;99814.34;;;9.92
23992;BMP280;12205;50.600;4.608;2023-01-13T15:11:13;99818.25;;;9.98
23992;BMP280;12205;50.600;4.608;2023-01-13T15:13:46;99824.78;;;10.01